sensor_id;sensor_type;location;lat;lon;timestamp;pressure;altitude;pressure_sealevel;temperature;humidity
78615;BME280;67937;52.488;20.952;2023-06-14T00:01:54;100826.61;;;12.86;76.82
78615;BME280;67937;52.488;20.952;2023-06-14T00:04:22;100822.67;;;12.86;76.84
78615;BME280;67937;52.488;20.952;2023-06-14T00:06:51;100822.17;;;12.86;76.72
78615;BME280;67937;52.488;20.952;2023-06-14T00:09:20;100820.58;;;12.86;76.80
78615;BME280;67937;52.488;20.952;2023-06-14T00:11:48;100820.07;;;12.86;76.84
78615;BME280;67937;52.488;20.952;2023-06-14T00:14:16;100820.15;;;12.85;76.59
78615;BME280;67937;52.488;20.952;2023-06-14T00:16:44;100815.02;;;12.85;76.83
78615;BME280;67937;52.488;20.952;2023-06-14T00:19:13;100814.77;;;12.83;76.73
78615;BME280;67937;52.488;20.952;2023-06-14T00:21:41;100812.77;;;12.82;76.70
78615;BME280;67937;52.488;20.952;2023-06-14T00:24:09;100814.96;;;12.81;76.68
78615;BME280;67937;52.488;20.952;2023-06-14T00:26:37;100812.40;;;12.80;76.65
78615;BME280;67937;52.488;20.952;2023-06-14T00:29:05;100807.97;;;12.80;76.92
78615;BME280;67937;52.488;20.952;2023-06-14T00:31:34;100799.95;;;12.78;76.88
78615;BME280;67937;52.488;20.952;2023-06-14T00:34:02;100796.61;;;12.78;76.96
78615;BME280;67937;52.488;20.952;2023-06-14T00:36:30;100795.60;;;12.77;76.96
78615;BME280;67937;52.488;20.952;2023-06-14T00:38:58;100793.72;;;12.77;77.00
78615;BME280;67937;52.488;20.952;2023-06-14T00:41:26;100793.59;;;12.76;77.08
78615;BME280;67937;52.488;20.952;2023-06-14T00:43:54;100794.33;;;12.74;77.21
78615;BME280;67937;52.488;20.952;2023-06-14T00:46:23;100790.91;;;12.76;77.21
78615;BME280;67937;52.488;20.952;2023-06-14T00:48:51;100791.59;;;12.77;77.59
78615;BME280;67937;52.488;20.952;2023-06-14T00:51:20;100795.95;;;12.77;77.58
78615;BME280;67937;52.488;20.952;2023-06-14T00:53:48;100795.38;;;12.76;77.79
78615;BME280;67937;52.488;20.952;2023-06-14T00:56:16;100791.95;;;12.77;77.81
78615;BME280;67937;52.488;20.952;2023-06-14T00:58:47;100791.46;;;12.78;77.64
78615;BME280;67937;52.488;20.952;2023-06-14T01:01:16;100786.08;;;12.79;77.76
78615;BME280;67937;52.488;20.952;2023-06-14T01:03:44;100789.81;;;12.81;77.66
78615;BME280;67937;52.488;20.952;2023-06-14T01:06:23;100792.79;;;12.82;78.07
78615;BME280;67937;52.488;20.952;2023-06-14T01:09:03;100791.30;;;12.80;77.92
78615;BME280;67937;52.488;20.952;2023-06-14T01:11:35;100793.10;;;12.80;78.05
78615;BME280;67937;52.488;20.952;2023-06-14T01:14:05;100788.83;;;12.80;77.88
78615;BME280;67937;52.488;20.952;2023-06-14T01:16:34;100784.34;;;12.83;77.80
78615;BME280;67937;52.488;20.952;2023-06-14T01:19:07;100781.87;;;12.85;77.66
78615;BME280;67937;52.488;20.952;2023-06-14T01:21:40;100777.69;;;12.84;77.74
78615;BME280;67937;52.488;20.952;2023-06-14T01:24:09;100775.17;;;12.85;77.95
78615;BME280;67937;52.488;20.952;2023-06-14T01:26:38;100774.16;;;12.82;78.32
78615;BME280;67937;52.488;20.952;2023-06-14T01:29:13;100774.79;;;12.79;79.03
78615;BME280;67937;52.488;20.952;2023-06-14T01:31:44;100770.73;;;12.78;78.73
78615;BME280;67937;52.488;20.952;2023-06-14T01:34:13;100767.70;;;12.81;78.40
78615;BME280;67937;52.488;20.952;2023-06-14T01:36:43;100765.74;;;12.81;78.39
78615;BME280;67937;52.488;20.952;2023-06-14T01:39:14;100766.81;;;12.79;78.42
78615;BME280;67937;52.488;20.952;2023-06-14T01:41:44;100768.34;;;12.77;78.60
78615;BME280;67937;52.488;20.952;2023-06-14T01:44:14;100765.52;;;12.75;78.77
78615;BME280;67937;52.488;20.952;2023-06-14T01:46:43;100766.19;;;12.75;78.90
78615;BME280;67937;52.488;20.952;2023-06-14T01:49:12;100765.23;;;12.77;78.79
78615;BME280;67937;52.488;20.952;2023-06-14T01:51:40;100764.73;;;12.76;79.15
78615;BME280;67937;52.488;20.952;2023-06-14T01:54:08;100762.86;;;12.75;79.24
78615;BME280;67937;52.488;20.952;2023-06-14T01:56:36;100764.84;;;12.75;79.42
78615;BME280;67937;52.488;20.952;2023-06-14T01:59:04;100761.51;;;12.74;79.51
78615;BME280;67937;52.488;20.952;2023-06-14T02:01:33;100759.15;;;12.73;79.40
78615;BME280;67937;52.488;20.952;2023-06-14T02:04:01;100758.69;;;12.74;79.17
78615;BME280;67937;52.488;20.952;2023-06-14T02:06:29;100760.25;;;12.75;79.12
78615;BME280;67937;52.488;20.952;2023-06-14T02:08:57;100766.23;;;12.79;78.78
78615;BME280;67937;52.488;20.952;2023-06-14T02:11:25;100767.55;;;12.82;78.93
78615;BME280;67937;52.488;20.952;2023-06-14T02:13:53;100768.60;;;12.78;79.09
78615;BME280;67937;52.488;20.952;2023-06-14T02:16:21;100772.19;;;12.80;79.12
78615;BME280;67937;52.488;20.952;2023-06-14T02:18:49;100774.02;;;12.77;79.21
78615;BME280;67937;52.488;20.952;2023-06-14T02:21:17;100773.36;;;12.74;79.77
78615;BME280;67937;52.488;20.952;2023-06-14T02:23:46;100776.34;;;12.75;79.48
78615;BME280;67937;52.488;20.952;2023-06-14T02:26:14;100776.98;;;12.73;79.43
78615;BME280;67937;52.488;20.952;2023-06-14T02:28:42;100776.19;;;12.74;79.64
78615;BME280;67937;52.488;20.952;2023-06-14T02:31:10;100774.62;;;12.72;79.63
78615;BME280;67937;52.488;20.952;2023-06-14T02:33:38;100776.23;;;12.70;79.69
78615;BME280;67937;52.488;20.952;2023-06-14T02:36:06;100773.59;;;12.72;79.71
78615;BME280;67937;52.488;20.952;2023-06-14T02:38:34;100777.16;;;12.73;80.07
78615;BME280;67937;52.488;20.952;2023-06-14T02:41:02;100777.05;;;12.75;79.89
78615;BME280;67937;52.488;20.952;2023-06-14T02:43:30;100777.55;;;12.79;79.46
78615;BME280;67937;52.488;20.952;2023-06-14T02:45:58;100777.14;;;12.82;79.43
78615;BME280;67937;52.488;20.952;2023-06-14T02:48:27;100774.46;;;12.82;79.64
78615;BME280;67937;52.488;20.952;2023-06-14T02:50:55;100774.88;;;12.80;79.62
78615;BME280;67937;52.488;20.952;2023-06-14T02:53:24;100774.52;;;12.80;79.69
78615;BME280;67937;52.488;20.952;2023-06-14T02:55:52;100768.41;;;12.79;80.05
78615;BME280;67937;52.488;20.952;2023-06-14T02:58:21;100773.05;;;12.80;79.87
78615;BME280;67937;52.488;20.952;2023-06-14T03:00:51;100771.00;;;12.84;79.45
78615;BME280;67937;52.488;20.952;2023-06-14T03:03:20;100776.56;;;12.87;79.77
78615;BME280;67937;52.488;20.952;2023-06-14T03:05:52;100776.17;;;12.87;79.63
78615;BME280;67937;52.488;20.952;2023-06-14T03:08:21;100775.91;;;12.88;79.80
78615;BME280;67937;52.488;20.952;2023-06-14T03:10:53;100777.80;;;12.89;79.70
78615;BME280;67937;52.488;20.952;2023-06-14T03:13:22;100776.59;;;12.92;79.93
78615;BME280;67937;52.488;20.952;2023-06-14T03:15:50;100773.14;;;12.93;80.02
78615;BME280;67937;52.488;20.952;2023-06-14T03:18:18;100767.06;;;12.93;79.56
78615;BME280;67937;52.488;20.952;2023-06-14T03:20:49;100767.46;;;12.97;79.68
78615;BME280;67937;52.488;20.952;2023-06-14T03:23:17;100770.65;;;12.97;79.94
78615;BME280;67937;52.488;20.952;2023-06-14T03:25:45;100770.89;;;12.96;79.81
78615;BME280;67937;52.488;20.952;2023-06-14T03:28:13;100768.19;;;12.99;79.63
78615;BME280;67937;52.488;20.952;2023-06-14T03:30:42;100771.17;;;13.02;79.59
78615;BME280;67937;52.488;20.952;2023-06-14T03:33:10;100769.92;;;13.04;79.38
78615;BME280;67937;52.488;20.952;2023-06-14T03:35:38;100770.77;;;13.05;79.40
78615;BME280;67937;52.488;20.952;2023-06-14T03:38:06;100771.60;;;13.05;79.22
78615;BME280;67937;52.488;20.952;2023-06-14T03:40:34;100771.86;;;13.06;79.12
78615;BME280;67937;52.488;20.952;2023-06-14T03:43:02;100774.44;;;13.07;79.03
78615;BME280;67937;52.488;20.952;2023-06-14T03:45:30;100776.16;;;13.06;79.19
78615;BME280;67937;52.488;20.952;2023-06-14T03:47:58;100773.80;;;13.06;78.70
78615;BME280;67937;52.488;20.952;2023-06-14T03:50:27;100766.86;;;13.09;78.44
78615;BME280;67937;52.488;20.952;2023-06-14T03:52:55;100766.29;;;13.11;78.21
78615;BME280;67937;52.488;20.952;2023-06-14T03:55:23;100762.64;;;13.13;78.32
78615;BME280;67937;52.488;20.952;2023-06-14T03:57:51;100764.23;;;13.13;78.38
78615;BME280;67937;52.488;20.952;2023-06-14T04:00:19;100763.43;;;13.14;78.32
78615;BME280;67937;52.488;20.952;2023-06-14T04:02:48;100765.08;;;13.16;78.25
78615;BME280;67937;52.488;20.952;2023-06-14T04:05:16;100763.20;;;13.17;78.27
78615;BME280;67937;52.488;20.952;2023-06-14T04:07:46;100766.27;;;13.18;78.32
78615;BME280;67937;52.488;20.952;2023-06-14T04:10:16;100768.80;;;13.17;77.96
78615;BME280;67937;52.488;20.952;2023-06-14T04:12:44;100767.72;;;13.20;78.01
78615;BME280;67937;52.488;20.952;2023-06-14T04:15:12;100757.85;;;13.23;77.84
78615;BME280;67937;52.488;20.952;2023-06-14T04:17:40;100758.39;;;13.27;77.72
78615;BME280;67937;52.488;20.952;2023-06-14T04:20:08;100759.86;;;13.31;77.70
78615;BME280;67937;52.488;20.952;2023-06-14T04:22:37;100759.83;;;13.33;77.54
78615;BME280;67937;52.488;20.952;2023-06-14T04:25:05;100763.76;;;13.35;77.66
78615;BME280;67937;52.488;20.952;2023-06-14T04:27:34;100762.73;;;13.37;77.60
78615;BME280;67937;52.488;20.952;2023-06-14T04:30:03;100764.23;;;13.40;77.71
78615;BME280;67937;52.488;20.952;2023-06-14T04:32:32;100762.41;;;13.42;77.83
78615;BME280;67937;52.488;20.952;2023-06-14T04:35:06;100763.73;;;13.46;77.59
78615;BME280;67937;52.488;20.952;2023-06-14T04:37:35;100762.70;;;13.49;77.56
78615;BME280;67937;52.488;20.952;2023-06-14T04:40:07;100762.89;;;13.55;77.59
78615;BME280;67937;52.488;20.952;2023-06-14T04:42:35;100761.09;;;13.60;77.58
78615;BME280;67937;52.488;20.952;2023-06-14T04:45:03;100761.02;;;13.63;77.69
78615;BME280;67937;52.488;20.952;2023-06-14T04:47:33;100757.58;;;13.66;77.77
78615;BME280;67937;52.488;20.952;2023-06-14T04:50:02;100755.15;;;13.69;77.73
78615;BME280;67937;52.488;20.952;2023-06-14T04:52:30;100756.16;;;13.70;78.03
78615;BME280;67937;52.488;20.952;2023-06-14T04:54:59;100760.92;;;13.70;78.17
78615;BME280;67937;52.488;20.952;2023-06-14T04:57:28;100762.21;;;13.71;78.13
78615;BME280;67937;52.488;20.952;2023-06-14T04:59:57;100764.05;;;13.73;78.51
78615;BME280;67937;52.488;20.952;2023-06-14T05:02:27;100761.60;;;13.75;78.31
78615;BME280;67937;52.488;20.952;2023-06-14T05:04:57;100763.88;;;13.77;78.58
78615;BME280;67937;52.488;20.952;2023-06-14T05:07:25;100763.17;;;13.79;78.02
78615;BME280;67937;52.488;20.952;2023-06-14T05:09:53;100763.42;;;13.84;78.16
78615;BME280;67937;52.488;20.952;2023-06-14T05:12:21;100770.16;;;13.88;78.33
78615;BME280;67937;52.488;20.952;2023-06-14T05:14:50;100771.89;;;13.91;78.57
78615;BME280;67937;52.488;20.952;2023-06-14T05:17:18;100770.77;;;13.93;78.23
78615;BME280;67937;52.488;20.952;2023-06-14T05:19:47;100771.79;;;13.96;78.84
78615;BME280;67937;52.488;20.952;2023-06-14T05:22:15;100773.52;;;13.99;78.63
78615;BME280;67937;52.488;20.952;2023-06-14T05:24:43;100771.09;;;14.02;78.52
78615;BME280;67937;52.488;20.952;2023-06-14T05:27:11;100771.33;;;14.05;78.26
78615;BME280;67937;52.488;20.952;2023-06-14T05:29:39;100767.48;;;14.11;78.03
78615;BME280;67937;52.488;20.952;2023-06-14T05:32:08;100767.16;;;14.14;78.23
78615;BME280;67937;52.488;20.952;2023-06-14T05:34:36;100769.33;;;14.16;78.17
78615;BME280;67937;52.488;20.952;2023-06-14T05:37:04;100771.73;;;14.21;78.06
78615;BME280;67937;52.488;20.952;2023-06-14T05:39:32;100773.71;;;14.25;78.20
78615;BME280;67937;52.488;20.952;2023-06-14T05:42:01;100766.54;;;14.28;77.84
78615;BME280;67937;52.488;20.952;2023-06-14T05:44:29;100770.27;;;14.32;77.84
78615;BME280;67937;52.488;20.952;2023-06-14T05:46:57;100771.02;;;14.33;78.16
78615;BME280;67937;52.488;20.952;2023-06-14T05:49:25;100774.27;;;14.37;77.93
78615;BME280;67937;52.488;20.952;2023-06-14T05:51:53;100773.16;;;14.39;77.87
78615;BME280;67937;52.488;20.952;2023-06-14T05:54:21;100775.71;;;14.43;77.85
78615;BME280;67937;52.488;20.952;2023-06-14T05:56:49;100775.36;;;14.46;77.56
78615;BME280;67937;52.488;20.952;2023-06-14T05:59:17;100777.42;;;14.51;77.83
78615;BME280;67937;52.488;20.952;2023-06-14T06:01:45;100777.73;;;14.55;77.61
78615;BME280;67937;52.488;20.952;2023-06-14T06:04:13;100780.45;;;14.59;77.51
78615;BME280;67937;52.488;20.952;2023-06-14T06:06:41;100782.27;;;14.62;77.46
78615;BME280;67937;52.488;20.952;2023-06-14T06:09:09;100787.20;;;14.65;77.21
78615;BME280;67937;52.488;20.952;2023-06-14T06:11:37;100789.63;;;14.68;77.32
78615;BME280;67937;52.488;20.952;2023-06-14T06:14:05;100788.96;;;14.67;77.32
78615;BME280;67937;52.488;20.952;2023-06-14T06:16:34;100793.25;;;14.66;77.43
78615;BME280;67937;52.488;20.952;2023-06-14T06:19:02;100793.17;;;14.66;77.00
78615;BME280;67937;52.488;20.952;2023-06-14T06:21:30;100793.77;;;14.67;76.92
78615;BME280;67937;52.488;20.952;2023-06-14T06:23:58;100794.95;;;14.68;76.76
78615;BME280;67937;52.488;20.952;2023-06-14T06:26:30;100797.49;;;14.69;76.95
78615;BME280;67937;52.488;20.952;2023-06-14T06:28:58;100795.83;;;14.70;76.76
78615;BME280;67937;52.488;20.952;2023-06-14T06:31:26;100795.59;;;14.72;76.80
78615;BME280;67937;52.488;20.952;2023-06-14T06:33:55;100798.39;;;14.75;76.62
78615;BME280;67937;52.488;20.952;2023-06-14T06:36:23;100806.23;;;14.78;76.66
78615;BME280;67937;52.488;20.952;2023-06-14T06:38:51;100807.44;;;14.81;76.62
78615;BME280;67937;52.488;20.952;2023-06-14T06:41:19;100806.34;;;14.83;76.79
78615;BME280;67937;52.488;20.952;2023-06-14T06:43:47;100805.20;;;14.86;76.77
78615;BME280;67937;52.488;20.952;2023-06-14T06:46:15;100806.05;;;14.88;76.87
78615;BME280;67937;52.488;20.952;2023-06-14T06:48:44;100811.39;;;14.90;76.86
78615;BME280;67937;52.488;20.952;2023-06-14T06:51:12;100814.48;;;14.91;77.07
78615;BME280;67937;52.488;20.952;2023-06-14T06:53:42;100815.55;;;14.91;77.00
78615;BME280;67937;52.488;20.952;2023-06-14T06:56:10;100823.31;;;14.94;76.83
78615;BME280;67937;52.488;20.952;2023-06-14T06:58:38;100824.45;;;14.95;76.87
78615;BME280;67937;52.488;20.952;2023-06-14T07:01:06;100821.91;;;14.95;76.93
78615;BME280;67937;52.488;20.952;2023-06-14T07:03:35;100824.37;;;14.98;77.14
78615;BME280;67937;52.488;20.952;2023-06-14T07:06:03;100824.02;;;15.00;77.16
78615;BME280;67937;52.488;20.952;2023-06-14T07:08:32;100820.34;;;15.03;76.86
78615;BME280;67937;52.488;20.952;2023-06-14T07:11:00;100824.08;;;15.05;76.79
78615;BME280;67937;52.488;20.952;2023-06-14T07:13:28;100819.36;;;15.08;76.57
78615;BME280;67937;52.488;20.952;2023-06-14T07:16:00;100817.00;;;15.10;76.64
78615;BME280;67937;52.488;20.952;2023-06-14T07:18:28;100816.31;;;15.12;76.97
78615;BME280;67937;52.488;20.952;2023-06-14T07:20:57;100817.54;;;15.16;76.86
78615;BME280;67937;52.488;20.952;2023-06-14T07:23:25;100819.08;;;15.20;76.93
78615;BME280;67937;52.488;20.952;2023-06-14T07:25:53;100814.87;;;15.26;76.84
78615;BME280;67937;52.488;20.952;2023-06-14T07:28:21;100816.26;;;15.34;76.91
78615;BME280;67937;52.488;20.952;2023-06-14T07:30:49;100819.30;;;15.46;76.78
78615;BME280;67937;52.488;20.952;2023-06-14T07:33:17;100817.95;;;15.57;76.51
78615;BME280;67937;52.488;20.952;2023-06-14T07:35:45;100814.71;;;15.65;76.69
78615;BME280;67937;52.488;20.952;2023-06-14T07:38:14;100812.70;;;15.71;76.52
78615;BME280;67937;52.488;20.952;2023-06-14T07:40:42;100811.44;;;15.78;76.41
78615;BME280;67937;52.488;20.952;2023-06-14T07:43:10;100808.07;;;15.86;76.76
78615;BME280;67937;52.488;20.952;2023-06-14T07:45:38;100810.75;;;15.93;76.42
78615;BME280;67937;52.488;20.952;2023-06-14T07:48:07;100814.48;;;16.01;76.54
78615;BME280;67937;52.488;20.952;2023-06-14T07:50:35;100811.63;;;16.08;76.41
78615;BME280;67937;52.488;20.952;2023-06-14T07:53:03;100808.85;;;16.15;76.29
78615;BME280;67937;52.488;20.952;2023-06-14T07:55:31;100804.73;;;16.19;76.39
78615;BME280;67937;52.488;20.952;2023-06-14T07:58:03;100800.84;;;16.24;76.16
78615;BME280;67937;52.488;20.952;2023-06-14T08:00:32;100805.95;;;16.34;75.97
78615;BME280;67937;52.488;20.952;2023-06-14T08:03:00;100804.65;;;16.43;75.92
78615;BME280;67937;52.488;20.952;2023-06-14T08:05:28;100800.05;;;16.49;75.96
78615;BME280;67937;52.488;20.952;2023-06-14T08:07:56;100804.48;;;16.53;75.98
78615;BME280;67937;52.488;20.952;2023-06-14T08:10:25;100804.49;;;16.54;75.65
78615;BME280;67937;52.488;20.952;2023-06-14T08:12:53;100812.02;;;16.56;76.00
78615;BME280;67937;52.488;20.952;2023-06-14T08:15:21;100812.85;;;16.60;75.84
78615;BME280;67937;52.488;20.952;2023-06-14T08:17:50;100815.00;;;16.64;75.59
78615;BME280;67937;52.488;20.952;2023-06-14T08:20:18;100815.91;;;16.67;75.27
78615;BME280;67937;52.488;20.952;2023-06-14T08:22:46;100810.27;;;16.70;75.11
78615;BME280;67937;52.488;20.952;2023-06-14T08:25:15;100806.69;;;16.72;74.79
78615;BME280;67937;52.488;20.952;2023-06-14T08:27:43;100809.45;;;16.75;74.78
78615;BME280;67937;52.488;20.952;2023-06-14T08:30:11;100808.92;;;16.77;74.75
78615;BME280;67937;52.488;20.952;2023-06-14T08:32:40;100809.11;;;16.77;74.75
78615;BME280;67937;52.488;20.952;2023-06-14T08:35:08;100805.55;;;16.77;74.83
78615;BME280;67937;52.488;20.952;2023-06-14T08:37:42;100810.26;;;16.79;74.97
78615;BME280;67937;52.488;20.952;2023-06-14T08:40:21;100817.91;;;16.83;74.99
78615;BME280;67937;52.488;20.952;2023-06-14T08:42:51;100821.08;;;16.85;74.97
78615;BME280;67937;52.488;20.952;2023-06-14T08:45:21;100825.02;;;16.85;74.63
78615;BME280;67937;52.488;20.952;2023-06-14T08:47:50;100827.67;;;16.87;74.89
78615;BME280;67937;52.488;20.952;2023-06-14T08:50:21;100823.71;;;16.87;74.67
78615;BME280;67937;52.488;20.952;2023-06-14T08:52:55;100826.84;;;16.87;74.67
78615;BME280;67937;52.488;20.952;2023-06-14T08:55:24;100825.03;;;16.87;74.85
78615;BME280;67937;52.488;20.952;2023-06-14T08:57:55;100825.72;;;16.85;75.08
78615;BME280;67937;52.488;20.952;2023-06-14T09:00:25;100837.14;;;16.85;75.12
78615;BME280;67937;52.488;20.952;2023-06-14T09:02:54;100844.80;;;16.81;74.96
78615;BME280;67937;52.488;20.952;2023-06-14T09:05:25;100844.55;;;16.79;75.02
78615;BME280;67937;52.488;20.952;2023-06-14T09:07:54;100841.81;;;16.76;75.11
78615;BME280;67937;52.488;20.952;2023-06-14T09:10:23;100841.48;;;16.74;75.19
78615;BME280;67937;52.488;20.952;2023-06-14T09:12:53;100840.34;;;16.71;75.13
78615;BME280;67937;52.488;20.952;2023-06-14T09:15:21;100845.19;;;16.68;75.26
78615;BME280;67937;52.488;20.952;2023-06-14T09:17:49;100846.43;;;16.67;75.24
78615;BME280;67937;52.488;20.952;2023-06-14T09:20:18;100846.13;;;16.66;75.18
78615;BME280;67937;52.488;20.952;2023-06-14T09:22:46;100851.34;;;16.66;75.34
78615;BME280;67937;52.488;20.952;2023-06-14T09:25:14;100848.73;;;16.67;75.40
78615;BME280;67937;52.488;20.952;2023-06-14T09:27:42;100850.92;;;16.66;75.55
78615;BME280;67937;52.488;20.952;2023-06-14T09:30:10;100848.38;;;16.67;75.87
78615;BME280;67937;52.488;20.952;2023-06-14T09:32:40;100846.52;;;16.70;76.02
78615;BME280;67937;52.488;20.952;2023-06-14T09:35:08;100843.13;;;16.71;75.56
78615;BME280;67937;52.488;20.952;2023-06-14T09:37:37;100842.58;;;16.72;75.59
78615;BME280;67937;52.488;20.952;2023-06-14T09:40:06;100844.84;;;16.72;75.58
78615;BME280;67937;52.488;20.952;2023-06-14T09:42:35;100846.41;;;16.72;75.77
78615;BME280;67937;52.488;20.952;2023-06-14T09:45:04;100843.41;;;16.72;75.91
78615;BME280;67937;52.488;20.952;2023-06-14T09:47:32;100841.30;;;16.75;75.94
78615;BME280;67937;52.488;20.952;2023-06-14T09:50:00;100844.91;;;16.80;75.86
78615;BME280;67937;52.488;20.952;2023-06-14T09:52:29;100847.08;;;16.85;75.93
78615;BME280;67937;52.488;20.952;2023-06-14T09:54:59;100850.17;;;16.90;75.72
78615;BME280;67937;52.488;20.952;2023-06-14T09:57:29;100847.05;;;16.93;75.51
78615;BME280;67937;52.488;20.952;2023-06-14T10:00:02;100846.88;;;16.93;75.67
78615;BME280;67937;52.488;20.952;2023-06-14T10:02:38;100851.23;;;16.94;75.38
78615;BME280;67937;52.488;20.952;2023-06-14T10:05:11;100856.55;;;16.96;75.21
78615;BME280;67937;52.488;20.952;2023-06-14T10:08:05;100853.95;;;16.97;75.01
78615;BME280;67937;52.488;20.952;2023-06-14T10:10:38;100858.12;;;17.00;75.08
78615;BME280;67937;52.488;20.952;2023-06-14T10:13:07;100858.99;;;17.06;74.83
78615;BME280;67937;52.488;20.952;2023-06-14T10:15:46;100857.31;;;17.17;74.66
78615;BME280;67937;52.488;20.952;2023-06-14T10:21:20;100848.04;;;17.33;74.16
78615;BME280;67937;52.488;20.952;2023-06-14T10:23:49;100845.45;;;17.36;73.67
78615;BME280;67937;52.488;20.952;2023-06-14T10:26:23;100845.79;;;17.32;73.67
78615;BME280;67937;52.488;20.952;2023-06-14T10:29:09;100843.08;;;17.33;73.72
78615;BME280;67937;52.488;20.952;2023-06-14T10:34:22;100837.67;;;17.37;73.56
78615;BME280;67937;52.488;20.952;2023-06-14T10:39:36;100841.20;;;17.46;73.59
78615;BME280;67937;52.488;20.952;2023-06-14T10:42:05;100841.24;;;17.56;73.37
78615;BME280;67937;52.488;20.952;2023-06-14T10:47:26;100844.07;;;17.69;72.95
78615;BME280;67937;52.488;20.952;2023-06-14T10:52:26;100842.24;;;17.74;72.57
78615;BME280;67937;52.488;20.952;2023-06-14T10:55:06;100844.13;;;17.75;72.43
78615;BME280;67937;52.488;20.952;2023-06-14T10:57:37;100840.94;;;17.75;72.42
78615;BME280;67937;52.488;20.952;2023-06-14T11:00:07;100838.51;;;17.76;71.92
78615;BME280;67937;52.488;20.952;2023-06-14T11:05:28;100837.70;;;17.77;71.75
78615;BME280;67937;52.488;20.952;2023-06-14T11:10:45;100834.86;;;17.84;71.28
78615;BME280;67937;52.488;20.952;2023-06-14T11:13:16;100835.11;;;17.83;71.30
78615;BME280;67937;52.488;20.952;2023-06-14T11:15:45;100830.83;;;17.83;70.71
78615;BME280;67937;52.488;20.952;2023-06-14T11:18:14;100827.45;;;17.81;70.77
78615;BME280;67937;52.488;20.952;2023-06-14T11:20:46;100826.26;;;17.84;70.80
78615;BME280;67937;52.488;20.952;2023-06-14T11:23:14;100823.23;;;17.86;70.72
78615;BME280;67937;52.488;20.952;2023-06-14T11:25:42;100824.23;;;17.92;70.59
78615;BME280;67937;52.488;20.952;2023-06-14T11:28:10;100821.77;;;17.97;70.44
78615;BME280;67937;52.488;20.952;2023-06-14T11:30:38;100823.83;;;18.05;70.41
78615;BME280;67937;52.488;20.952;2023-06-14T11:33:09;100823.89;;;18.13;70.50
78615;BME280;67937;52.488;20.952;2023-06-14T11:35:38;100822.83;;;18.19;70.02
78615;BME280;67937;52.488;20.952;2023-06-14T11:38:06;100818.52;;;18.21;69.90
78615;BME280;67937;52.488;20.952;2023-06-14T11:40:37;100820.02;;;18.26;70.04
78615;BME280;67937;52.488;20.952;2023-06-14T11:43:06;100816.58;;;18.31;69.82
78615;BME280;67937;52.488;20.952;2023-06-14T11:45:34;100817.41;;;18.57;69.61
78615;BME280;67937;52.488;20.952;2023-06-14T11:48:03;100816.14;;;18.96;68.88
78615;BME280;67937;52.488;20.952;2023-06-14T11:50:32;100815.83;;;19.15;68.82
78615;BME280;67937;52.488;20.952;2023-06-14T11:53:00;100814.20;;;19.29;68.36
78615;BME280;67937;52.488;20.952;2023-06-14T11:55:37;100813.22;;;19.29;68.10
78615;BME280;67937;52.488;20.952;2023-06-14T11:58:06;100811.82;;;19.21;68.21
78615;BME280;67937;52.488;20.952;2023-06-14T12:00:36;100816.23;;;19.17;68.44
78615;BME280;67937;52.488;20.952;2023-06-14T12:03:04;100814.92;;;19.14;68.45
78615;BME280;67937;52.488;20.952;2023-06-14T12:05:33;100812.55;;;19.07;67.96
78615;BME280;67937;52.488;20.952;2023-06-14T12:08:03;100813.09;;;18.96;68.02
78615;BME280;67937;52.488;20.952;2023-06-14T12:10:42;100817.46;;;18.92;68.35
78615;BME280;67937;52.488;20.952;2023-06-14T12:13:10;100814.34;;;18.86;68.09
78615;BME280;67937;52.488;20.952;2023-06-14T12:15:38;100815.50;;;18.78;67.99
78615;BME280;67937;52.488;20.952;2023-06-14T12:18:07;100813.48;;;18.69;67.72
78615;BME280;67937;52.488;20.952;2023-06-14T12:20:35;100814.73;;;18.61;67.75
78615;BME280;67937;52.488;20.952;2023-06-14T12:23:04;100813.31;;;18.61;67.45
78615;BME280;67937;52.488;20.952;2023-06-14T12:25:34;100814.55;;;18.52;67.47
78615;BME280;67937;52.488;20.952;2023-06-14T12:28:06;100814.70;;;18.49;67.73
78615;BME280;67937;52.488;20.952;2023-06-14T12:30:36;100813.40;;;18.43;67.81
78615;BME280;67937;52.488;20.952;2023-06-14T12:33:05;100815.75;;;18.41;67.72
78615;BME280;67937;52.488;20.952;2023-06-14T12:35:34;100811.51;;;18.39;68.17
78615;BME280;67937;52.488;20.952;2023-06-14T12:38:02;100808.90;;;18.38;68.06
78615;BME280;67937;52.488;20.952;2023-06-14T12:40:31;100804.83;;;18.38;68.25
78615;BME280;67937;52.488;20.952;2023-06-14T12:42:59;100807.85;;;18.36;68.37
78615;BME280;67937;52.488;20.952;2023-06-14T12:45:27;100801.44;;;18.38;68.20
78615;BME280;67937;52.488;20.952;2023-06-14T12:47:55;100801.17;;;18.40;68.12
78615;BME280;67937;52.488;20.952;2023-06-14T12:50:24;100799.66;;;18.39;68.13
78615;BME280;67937;52.488;20.952;2023-06-14T12:52:52;100801.44;;;18.40;68.15
78615;BME280;67937;52.488;20.952;2023-06-14T12:55:20;100805.04;;;18.41;68.27
78615;BME280;67937;52.488;20.952;2023-06-14T12:57:48;100798.57;;;18.41;68.09
78615;BME280;67937;52.488;20.952;2023-06-14T13:00:18;100797.66;;;18.45;67.86
78615;BME280;67937;52.488;20.952;2023-06-14T13:02:48;100800.89;;;18.51;67.38
78615;BME280;67937;52.488;20.952;2023-06-14T13:05:17;100801.48;;;18.59;67.10
78615;BME280;67937;52.488;20.952;2023-06-14T13:07:45;100797.91;;;18.64;66.61
78615;BME280;67937;52.488;20.952;2023-06-14T13:10:13;100797.90;;;18.79;66.09